createdAt,value
2018-05-10T00:00:46.305Z,90.10
2018-05-10T00:03:13.832Z,90.30
2018-05-10T00:05:41.348Z,90.60
2018-05-10T00:08:08.860Z,90.30
2018-05-10T00:10:36.355Z,90.00
2018-05-10T00:13:04.133Z,90.30
2018-05-10T00:15:31.647Z,90.50
2018-05-10T00:17:59.147Z,90.70
2018-05-10T00:20:27.406Z,85.60
2018-05-10T00:22:54.909Z,85.50
2018-05-10T00:25:22.423Z,84.80
2018-05-10T00:27:49.966Z,84.70
2018-05-10T00:30:17.494Z,84.40
2018-05-10T00:32:45.022Z,84.10
2018-05-10T00:35:12.534Z,83.50
2018-05-10T00:37:40.036Z,83.50
2018-05-10T00:40:07.539Z,83.10
2018-05-10T00:42:35.046Z,84.50
2018-05-10T00:45:02.546Z,86.00
2018-05-10T00:47:30.045Z,87.40
2018-05-10T00:49:57.556Z,87.70
2018-05-10T00:52:25.077Z,88.10
2018-05-10T00:54:54.359Z,87.20
2018-05-10T00:57:21.869Z,87.90
2018-05-10T00:59:49.379Z,87.20
2018-05-10T01:02:17.679Z,86.70
2018-05-10T01:04:45.234Z,86.70
2018-05-10T01:07:13.499Z,87.00
2018-05-10T01:09:41.791Z,88.10
2018-05-10T01:12:10.051Z,88.60
2018-05-10T01:14:37.641Z,88.50
2018-05-10T01:17:05.301Z,88.70
2018-05-10T01:19:33.572Z,88.20
2018-05-10T01:22:01.879Z,88.10
2018-05-10T01:24:29.379Z,88.00
2018-05-10T01:26:56.904Z,88.40
2018-05-10T01:29:24.581Z,88.60
2018-05-10T01:31:52.081Z,88.70
2018-05-10T01:34:19.589Z,88.50
2018-05-10T01:36:47.867Z,87.70
2018-05-10T01:39:15.392Z,87.70
2018-05-10T01:41:42.925Z,88.10
2018-05-10T01:44:10.434Z,88.30
2018-05-10T01:46:37.942Z,88.20
2018-05-10T01:49:05.448Z,88.80
2018-05-10T01:51:32.972Z,89.00
2018-05-10T01:54:00.561Z,89.40
2018-05-10T01:56:28.781Z,89.50
2018-05-10T01:58:57.064Z,90.10
2018-05-10T02:01:25.332Z,90.00
2018-05-10T02:03:52.852Z,90.00
2018-05-10T02:06:20.358Z,90.40
2018-05-10T02:08:47.862Z,90.00
2018-05-10T02:11:15.380Z,90.00
2018-05-10T02:13:42.896Z,90.20
2018-05-10T02:16:10.394Z,90.10
2018-05-10T02:18:37.929Z,90.20
2018-05-10T02:21:05.448Z,90.40
2018-05-10T02:23:33.724Z,90.30
2018-05-10T02:26:02.010Z,90.40
2018-05-10T02:28:30.336Z,90.40
2018-05-10T02:30:57.868Z,90.40
2018-05-10T02:33:26.140Z,90.50
2018-05-10T02:35:54.409Z,90.70
2018-05-10T02:38:21.930Z,90.70
2018-05-10T02:40:49.438Z,90.80
2018-05-10T02:43:16.941Z,90.80
2018-05-10T02:45:44.445Z,90.80
2018-05-10T02:48:11.957Z,90.60
2018-05-10T02:50:39.459Z,90.50
2018-05-10T02:53:06.957Z,90.70
2018-05-10T02:55:35.273Z,90.60
2018-05-10T02:58:02.781Z,90.60
2018-05-10T03:00:30.283Z,90.80
2018-05-10T03:02:57.801Z,90.80
2018-05-10T03:05:25.320Z,90.80
2018-05-10T03:07:52.989Z,90.70
2018-05-10T03:10:20.500Z,90.70
2018-05-10T03:12:48.013Z,90.70
2018-05-10T03:15:15.513Z,90.90
2018-05-10T03:17:43.045Z,90.90
2018-05-10T03:20:10.543Z,90.80
2018-05-10T03:22:38.040Z,90.70
2018-05-10T03:25:06.327Z,90.70
2018-05-10T03:27:34.601Z,90.70
2018-05-10T03:30:02.883Z,90.30
2018-05-10T03:32:31.173Z,89.60
2018-05-10T03:34:59.451Z,90.60
2018-05-10T03:37:27.739Z,91.60
2018-05-10T03:39:56.010Z,91.50
2018-05-10T03:42:24.282Z,91.80
2018-05-10T03:44:51.782Z,91.80
2018-05-10T03:47:19.322Z,91.90
2018-05-10T03:49:47.596Z,91.90
2018-05-10T03:52:15.880Z,92.10
2018-05-10T03:54:44.169Z,92.40
2018-05-10T03:57:12.426Z,92.80
2018-05-10T03:59:39.929Z,92.70
2018-05-10T04:02:07.437Z,92.80
2018-05-10T04:04:46.855Z,92.80
2018-05-10T04:07:26.092Z,93.10
2018-05-10T04:10:05.361Z,92.80
2018-05-10T04:12:33.635Z,92.60
2018-05-10T04:15:02.365Z,92.50
2018-05-10T04:17:29.873Z,92.60
2018-05-10T04:19:57.367Z,92.80
2018-05-10T04:22:25.623Z,92.60
2018-05-10T04:24:53.112Z,92.50
2018-05-10T04:27:21.397Z,92.90
2018-05-10T04:29:49.661Z,93.30
2018-05-10T04:32:17.953Z,93.70
2018-05-10T04:34:45.457Z,93.70
2018-05-10T04:37:12.971Z,93.90
2018-05-10T04:39:41.247Z,93.90
2018-05-10T04:42:08.797Z,93.90
2018-05-10T04:44:37.047Z,93.70
2018-05-10T04:47:04.558Z,93.70
2018-05-10T04:49:32.076Z,93.60
2018-05-10T04:51:59.597Z,93.40
2018-05-10T04:54:27.863Z,93.40
2018-05-10T04:56:55.380Z,93.40
2018-05-10T04:59:22.882Z,93.10
2018-05-10T05:01:50.380Z,93.30
2018-05-10T05:04:17.937Z,93.20
2018-05-10T05:06:46.218Z,93.00
2018-05-10T05:09:14.480Z,93.10
2018-05-10T05:11:41.986Z,93.00
2018-05-10T05:14:09.504Z,93.10
2018-05-10T05:16:37.784Z,92.90
2018-05-10T05:19:05.280Z,92.90
2018-05-10T05:21:32.783Z,92.80
2018-05-10T05:24:00.288Z,92.90
2018-05-10T05:26:28.582Z,92.90
2018-05-10T05:28:56.244Z,92.90
2018-05-10T05:31:23.754Z,93.10
2018-05-10T05:33:51.252Z,93.40
2018-05-10T05:36:18.766Z,93.60
2018-05-10T05:38:46.280Z,93.70
2018-05-10T05:41:14.656Z,94.10
2018-05-10T05:43:42.844Z,94.00
2018-05-10T05:46:11.114Z,93.50
2018-05-10T05:48:38.616Z,93.40
2018-05-10T05:51:06.112Z,93.20
2018-05-10T05:53:33.835Z,93.30
2018-05-10T05:56:01.324Z,93.60
2018-05-10T05:58:28.824Z,93.70
2018-05-10T06:00:56.370Z,93.70
2018-05-10T06:03:23.832Z,93.60
2018-05-10T06:05:51.360Z,93.80
2018-05-10T06:08:18.870Z,94.10
2018-05-10T06:10:46.371Z,94.00
2018-05-10T06:13:14.637Z,94.00
2018-05-10T06:15:42.239Z,94.00
2018-05-10T06:18:09.649Z,94.30
2018-05-10T06:20:37.145Z,94.60
2018-05-10T06:23:05.415Z,94.80
2018-05-10T06:25:32.923Z,94.80
2018-05-10T06:28:00.431Z,95.00
2018-05-10T06:30:27.933Z,95.00
2018-05-10T06:32:55.432Z,95.40
2018-05-10T06:35:22.929Z,95.20
2018-05-10T06:37:51.208Z,94.50
2018-05-10T06:40:19.537Z,94.20
2018-05-10T06:42:47.053Z,94.20
2018-05-10T06:45:14.561Z,94.20
2018-05-10T06:47:42.076Z,94.30
2018-05-10T06:50:09.580Z,94.60
2018-05-10T06:52:37.088Z,94.70
2018-05-10T06:55:04.591Z,94.90
2018-05-10T06:57:32.098Z,94.90
2018-05-10T06:59:59.598Z,94.90
2018-05-10T07:02:27.871Z,94.50
2018-05-10T07:04:55.382Z,94.50
2018-05-10T07:07:22.904Z,94.60
2018-05-10T07:09:51.377Z,94.70
2018-05-10T07:12:19.456Z,94.70
2018-05-10T07:14:46.953Z,94.70
2018-05-10T07:17:14.453Z,94.80
2018-05-10T07:19:41.953Z,94.80
2018-05-10T07:22:10.225Z,94.90
2018-05-10T07:24:38.509Z,94.90
2018-05-10T07:27:06.011Z,94.90
2018-05-10T07:29:33.520Z,94.80
2018-05-10T07:32:01.031Z,94.60
2018-05-10T07:34:28.545Z,94.40
2018-05-10T07:36:56.061Z,94.40
2018-05-10T07:39:23.559Z,94.30
2018-05-10T07:41:51.061Z,94.50
2018-05-10T07:44:19.365Z,93.70
2018-05-10T07:46:46.875Z,93.70
2018-05-10T07:49:14.385Z,93.70
2018-05-10T07:51:41.929Z,93.80
2018-05-10T07:54:10.212Z,93.90
2018-05-10T07:56:38.479Z,93.50
2018-05-10T07:59:06.011Z,93.50
2018-05-10T08:01:33.521Z,93.50
2018-05-10T08:04:01.795Z,93.80
2018-05-10T08:06:29.327Z,93.80
2018-05-10T08:08:56.892Z,93.80
2018-05-10T08:11:24.401Z,92.90
2018-05-10T08:13:52.672Z,93.00
2018-05-10T08:16:20.950Z,92.50
2018-05-10T08:18:48.452Z,92.50
2018-05-10T08:21:15.943Z,92.80
2018-05-10T08:23:49.325Z,92.70
2018-05-10T08:26:16.822Z,92.50
2018-05-10T08:28:44.338Z,92.00
2018-05-10T08:31:11.858Z,91.90
2018-05-10T08:33:39.370Z,92.10
2018-05-10T08:36:06.874Z,91.10
2018-05-10T08:38:34.556Z,91.10
2018-05-10T08:41:02.061Z,91.90
2018-05-10T08:43:29.562Z,92.20
2018-05-10T08:45:57.070Z,92.70
2018-05-10T08:48:24.576Z,92.00
2018-05-10T08:50:52.087Z,92.00
2018-05-10T08:53:20.380Z,92.10
2018-05-10T08:55:47.887Z,92.10
2018-05-10T08:58:15.399Z,92.10
2018-05-10T09:00:43.672Z,91.60
2018-05-10T09:03:11.946Z,91.20
2018-05-10T09:05:40.222Z,90.60
2018-05-10T09:08:07.715Z,90.60
2018-05-10T09:10:35.209Z,90.50
2018-05-10T09:13:02.721Z,91.80
2018-05-10T09:15:30.992Z,90.80
2018-05-10T09:17:58.494Z,90.80
2018-05-10T09:20:26.023Z,91.70
2018-05-10T09:22:54.301Z,90.00
2018-05-10T09:25:22.573Z,90.40
2018-05-10T09:27:50.255Z,90.30
2018-05-10T09:30:18.529Z,91.60
2018-05-10T09:32:46.035Z,91.30
2018-05-10T09:35:13.550Z,88.60
2018-05-10T09:37:41.059Z,89.00
2018-05-10T09:40:08.556Z,90.00
2018-05-10T09:42:36.307Z,89.20
2018-05-10T09:45:03.814Z,87.90
2018-05-10T09:47:31.335Z,88.00
2018-05-10T09:49:58.859Z,88.10
2018-05-10T09:52:27.136Z,90.20
2018-05-10T09:54:54.713Z,90.20
2018-05-10T09:57:22.260Z,90.00
2018-05-10T09:59:50.560Z,90.40
2018-05-10T10:02:18.056Z,90.40
2018-05-10T10:04:45.550Z,90.20
2018-05-10T10:07:13.053Z,90.30
2018-05-10T10:09:40.553Z,91.30
2018-05-10T10:12:08.076Z,91.30
2018-05-10T10:14:35.582Z,90.40
2018-05-10T10:17:03.115Z,90.70
2018-05-10T10:19:30.656Z,89.00
2018-05-10T10:21:58.931Z,85.60
2018-05-10T10:24:27.208Z,84.90
2018-05-10T10:26:55.499Z,84.50
2018-05-10T10:29:23.022Z,84.50
2018-05-10T10:31:50.524Z,84.00
2018-05-10T10:34:18.794Z,83.80
2018-05-10T10:36:47.082Z,81.90
2018-05-10T10:39:14.605Z,81.80
2018-05-10T10:41:42.103Z,81.80
2018-05-10T10:44:10.364Z,84.10
2018-05-10T10:46:37.907Z,84.20
2018-05-10T10:49:05.435Z,84.40
2018-05-10T10:51:33.784Z,79.90
2018-05-10T10:54:01.290Z,75.70
2018-05-10T10:56:28.819Z,78.60
2018-05-10T10:58:57.101Z,77.40
2018-05-10T11:01:25.389Z,76.80
2018-05-10T11:03:53.649Z,76.00
2018-05-10T11:06:28.770Z,76.00
2018-05-10T11:08:56.273Z,75.80
2018-05-10T11:11:24.555Z,78.60
2018-05-10T11:13:52.821Z,76.20
2018-05-10T11:16:20.315Z,76.20
2018-05-10T11:18:47.991Z,76.10
2018-05-10T11:21:15.507Z,80.40
2018-05-10T11:23:43.023Z,76.80
2018-05-10T11:26:10.551Z,77.40
2018-05-10T11:28:38.816Z,75.70
2018-05-10T11:31:06.361Z,75.60
2018-05-10T11:33:33.869Z,75.30
2018-05-10T11:36:01.421Z,75.40
2018-05-10T11:38:28.963Z,74.40
2018-05-10T11:44:17.644Z,77.60
2018-05-10T11:46:45.144Z,77.20
2018-05-10T11:49:12.657Z,76.60
2018-05-10T11:51:40.944Z,76.00
2018-05-10T11:54:08.455Z,75.90
2018-05-10T11:56:36.120Z,77.30
2018-05-10T11:59:03.632Z,74.40
2018-05-10T12:01:31.906Z,76.30
2018-05-10T12:03:59.419Z,76.40
2018-05-10T12:06:26.923Z,77.10
2018-05-10T12:08:54.426Z,75.70
2018-05-10T12:11:21.944Z,79.20
2018-05-10T12:13:49.438Z,80.10
2018-05-10T12:16:17.698Z,80.10
2018-05-10T12:18:45.184Z,80.00
2018-05-10T12:21:13.456Z,79.90
2018-05-10T12:23:41.779Z,80.70
2018-05-10T12:26:09.297Z,80.60
2018-05-10T12:28:37.595Z,79.90
2018-05-10T12:31:05.251Z,79.80
2018-05-10T12:33:32.697Z,81.20
2018-05-10T12:36:00.222Z,81.80
2018-05-10T12:38:27.745Z,82.00
2018-05-10T12:40:56.019Z,80.90
2018-05-10T12:43:24.297Z,79.60
2018-05-10T12:45:52.569Z,79.00
2018-05-10T12:48:20.096Z,79.00
2018-05-10T12:50:47.605Z,80.30
2018-05-10T12:53:22.125Z,80.90
2018-05-10T12:55:49.701Z,81.20
2018-05-10T12:58:17.997Z,81.60
2018-05-10T13:00:46.615Z,81.60
2018-05-10T13:03:14.287Z,80.20
2018-05-10T13:05:41.833Z,76.70
2018-05-10T13:08:09.332Z,77.00
2018-05-10T13:10:36.832Z,78.50
2018-05-10T13:13:05.105Z,78.60
2018-05-10T13:15:33.371Z,80.40
2018-05-10T13:18:00.889Z,80.30
2018-05-10T13:20:28.401Z,80.30
2018-05-10T13:22:56.708Z,79.50
2018-05-10T13:25:24.233Z,79.50
2018-05-10T13:27:51.742Z,79.10
2018-05-10T13:30:19.259Z,80.80
2018-05-10T13:32:46.763Z,81.00
2018-05-10T13:35:14.284Z,80.50
2018-05-10T13:37:41.787Z,81.00
2018-05-10T13:40:10.070Z,82.90
2018-05-10T13:42:37.597Z,82.90
2018-05-10T13:45:05.101Z,82.00
2018-05-10T13:47:32.702Z,82.00
2018-05-10T13:50:00.130Z,82.00
2018-05-10T13:52:27.647Z,81.30
2018-05-10T13:54:55.140Z,82.40
2018-05-10T13:57:23.412Z,83.00
2018-05-10T13:59:51.706Z,83.90
2018-05-10T14:02:20.018Z,82.00
2018-05-10T14:04:48.262Z,82.10
2018-05-10T14:07:16.564Z,82.90
2018-05-10T14:09:44.072Z,82.90
2018-05-10T14:12:11.603Z,82.90
2018-05-10T14:14:39.108Z,82.60
2018-05-10T14:17:06.611Z,81.80
2018-05-10T14:19:34.111Z,80.90
2018-05-10T14:22:01.670Z,82.70
2018-05-10T14:24:29.177Z,82.10
2018-05-10T14:26:56.693Z,81.20
2018-05-10T14:29:24.206Z,81.80
2018-05-10T14:31:52.477Z,81.50
2018-05-10T14:34:20.002Z,81.40
2018-05-10T14:36:47.533Z,81.80
2018-05-10T14:39:15.817Z,83.50
2018-05-10T14:41:43.353Z,83.50
2018-05-10T14:44:10.855Z,84.60
2018-05-10T14:46:38.383Z,81.60
2018-05-10T14:49:05.882Z,82.40
2018-05-10T14:51:33.423Z,83.10
2018-05-10T14:54:01.762Z,85.60
2018-05-10T14:56:29.970Z,85.50
2018-05-10T14:58:57.485Z,85.60
2018-05-10T15:01:24.995Z,85.50
2018-05-10T15:03:52.510Z,84.60
2018-05-10T15:06:20.195Z,85.70
2018-05-10T15:08:47.729Z,84.50
2018-05-10T15:11:15.231Z,85.20
2018-05-10T15:13:42.747Z,85.00
2018-05-10T15:16:10.303Z,83.70
2018-05-10T15:18:37.823Z,85.30
2018-05-10T15:21:05.331Z,85.00
2018-05-10T15:23:32.846Z,86.30
2018-05-10T15:26:00.378Z,85.90
2018-05-10T15:28:27.900Z,85.60
2018-05-10T15:30:55.401Z,86.20
2018-05-10T15:33:22.908Z,86.50
2018-05-10T15:35:50.414Z,87.00
2018-05-10T15:38:17.908Z,86.70
2018-05-10T15:40:45.405Z,86.80
2018-05-10T15:43:12.906Z,82.10
2018-05-10T15:45:40.438Z,86.30
2018-05-10T15:48:07.936Z,85.70
2018-05-10T15:50:35.453Z,88.00
2018-05-10T15:53:02.964Z,81.00
2018-05-10T15:55:30.482Z,81.30
2018-05-10T15:57:57.990Z,84.00
2018-05-10T16:00:25.506Z,82.00
2018-05-10T16:02:53.007Z,85.80
2018-05-10T16:05:20.531Z,82.70
2018-05-10T16:07:48.032Z,81.60
2018-05-10T16:10:16.298Z,79.30
2018-05-10T16:12:43.810Z,79.30
2018-05-10T16:15:12.359Z,80.80
2018-05-10T16:17:40.625Z,79.10
2018-05-10T16:20:08.131Z,79.10
2018-05-10T16:22:35.649Z,80.70
2018-05-10T16:25:03.159Z,79.20
2018-05-10T16:27:30.657Z,79.50
2018-05-10T16:29:58.173Z,78.60
2018-05-10T16:32:25.683Z,79.50
2018-05-10T16:34:53.181Z,78.70
2018-05-10T16:37:21.449Z,80.80
2018-05-10T16:39:49.729Z,79.70
2018-05-10T16:42:17.991Z,80.50
2018-05-10T16:44:45.493Z,80.50
2018-05-10T16:47:13.014Z,79.50
2018-05-10T16:49:40.525Z,80.40
2018-05-10T16:52:08.067Z,79.80
2018-05-10T16:54:35.617Z,79.80
2018-05-10T16:57:03.140Z,79.10
2018-05-10T16:59:30.641Z,79.20
2018-05-10T17:01:58.147Z,81.80
2018-05-10T17:04:25.677Z,81.80
2018-05-10T17:06:53.171Z,80.90
2018-05-10T17:09:20.711Z,84.40
2018-05-10T17:11:48.989Z,84.20
2018-05-10T17:14:16.486Z,84.20
2018-05-10T17:16:43.996Z,84.90
2018-05-10T17:19:11.494Z,85.60
2018-05-10T17:21:39.790Z,85.90
2018-05-10T17:24:07.302Z,85.90
2018-05-10T17:26:34.844Z,86.90
2018-05-10T17:29:02.364Z,85.60
2018-05-10T17:31:30.656Z,84.90
2018-05-10T17:33:58.177Z,84.90
2018-05-10T17:36:25.691Z,85.50
2018-05-10T17:38:53.202Z,84.70
2018-05-10T17:41:20.716Z,86.10
2018-05-10T17:43:48.220Z,86.60
2018-05-10T17:46:15.742Z,86.80
2018-05-10T17:48:43.244Z,85.90
2018-05-10T17:51:10.750Z,85.30
2018-05-10T17:53:39.010Z,85.70
2018-05-10T17:56:06.550Z,85.60
2018-05-10T17:58:34.042Z,85.90
2018-05-10T18:01:01.589Z,84.70
2018-05-10T18:03:29.076Z,84.20
2018-05-10T18:05:57.358Z,84.00
2018-05-10T18:08:25.651Z,84.00
2018-05-10T18:10:53.918Z,83.50
2018-05-10T18:13:21.417Z,83.50
2018-05-10T18:15:48.934Z,82.80
2018-05-10T18:18:16.437Z,83.50
2018-05-10T18:20:43.939Z,83.60
2018-05-10T18:23:11.514Z,84.50
2018-05-10T18:25:38.973Z,84.40
2018-05-10T18:28:06.477Z,85.90
2018-05-10T18:30:34.759Z,86.00
2018-05-10T18:33:03.025Z,85.60
2018-05-10T18:35:31.299Z,86.00
2018-05-10T18:37:58.847Z,86.00
2018-05-10T18:40:26.360Z,86.10
2018-05-10T18:42:54.025Z,86.60
2018-05-10T18:45:21.528Z,86.80
2018-05-10T18:47:49.032Z,87.00
2018-05-10T18:50:17.306Z,88.60
2018-05-10T18:52:45.576Z,88.50
2018-05-10T18:55:13.245Z,88.40
2018-05-10T18:57:40.746Z,88.00
2018-05-10T19:00:09.016Z,88.30
2018-05-10T19:02:37.309Z,88.70
2018-05-10T19:05:04.812Z,88.70
2018-05-10T19:07:32.339Z,89.60
2018-05-10T19:09:59.860Z,90.20
2018-05-10T19:12:27.376Z,90.20
2018-05-10T19:14:54.908Z,90.20
2018-05-10T19:17:23.178Z,90.00
2018-05-10T19:19:51.461Z,90.40
2018-05-10T19:22:19.744Z,89.80
2018-05-10T19:24:48.022Z,90.00
2018-05-10T19:27:16.285Z,90.30
2018-05-10T19:29:43.798Z,90.20
2018-05-10T19:32:11.322Z,90.30
2018-05-10T19:34:38.825Z,90.30
2018-05-10T19:37:06.336Z,90.20
2018-05-10T19:39:33.857Z,90.20
2018-05-10T19:42:01.358Z,90.20
2018-05-10T19:44:28.952Z,89.60
2018-05-10T19:46:56.435Z,90.00
2018-05-10T19:49:23.981Z,89.90
2018-05-10T19:51:52.263Z,90.10
2018-05-10T19:54:20.535Z,90.30
2018-05-10T19:56:48.938Z,90.20
2018-05-10T19:59:17.102Z,90.70
2018-05-10T20:01:45.365Z,90.10
2018-05-10T20:04:12.885Z,90.10
2018-05-10T20:06:40.380Z,90.40
2018-05-10T20:09:07.885Z,90.10
2018-05-10T20:11:35.388Z,90.50
2018-05-10T20:14:02.927Z,90.50
2018-05-10T20:16:30.437Z,90.50
2018-05-10T20:18:57.975Z,90.30
2018-05-10T20:21:25.490Z,89.90
2018-05-10T20:23:53.811Z,90.20
2018-05-10T20:26:22.082Z,90.30
2018-05-10T20:28:49.645Z,90.30
2018-05-10T20:31:17.148Z,90.30
2018-05-10T20:33:44.665Z,90.30
2018-05-10T20:36:12.166Z,90.40
2018-05-10T20:38:39.671Z,90.20
2018-05-10T20:41:07.958Z,90.40
2018-05-10T20:43:37.226Z,90.30
2018-05-10T20:46:04.740Z,90.30
2018-05-10T20:48:32.247Z,90.10
2018-05-10T20:50:59.752Z,90.00
2018-05-10T20:53:28.030Z,90.30
2018-05-10T20:55:56.322Z,90.30
2018-05-10T20:58:23.821Z,90.30
2018-05-10T21:00:51.332Z,90.30
2018-05-10T21:03:19.612Z,90.70
2018-05-10T21:05:47.890Z,90.80
2018-05-10T21:08:16.200Z,91.10
2018-05-10T21:10:43.718Z,91.10
2018-05-10T21:13:13.013Z,91.40
2018-05-10T21:15:40.508Z,91.70
2018-05-10T21:18:08.778Z,91.50
2018-05-10T21:20:36.272Z,91.50
2018-05-10T21:23:03.825Z,91.40
2018-05-10T21:25:32.089Z,91.40
2018-05-10T21:28:00.384Z,91.70
2018-05-10T21:30:28.650Z,91.70
2018-05-10T21:32:56.939Z,91.80
2018-05-10T21:35:25.215Z,91.90
2018-05-10T21:37:53.507Z,91.80
2018-05-10T21:40:21.772Z,91.90
2018-05-10T21:42:49.393Z,91.90
2018-05-10T21:45:17.096Z,91.90
2018-05-10T21:47:44.800Z,92.00
2018-05-10T21:50:12.337Z,92.00
2018-05-10T21:52:39.898Z,92.30
2018-05-10T21:55:08.185Z,92.00
2018-05-10T21:57:35.704Z,92.00
2018-05-10T22:00:03.255Z,92.00
2018-05-10T22:02:30.761Z,91.90
2018-05-10T22:04:58.272Z,91.80
2018-05-10T22:07:25.779Z,91.70
2018-05-10T22:09:53.307Z,91.80
2018-05-10T22:12:20.809Z,91.70
2018-05-10T22:14:48.304Z,91.90
2018-05-10T22:17:16.570Z,92.00
2018-05-10T22:19:44.839Z,92.20
2018-05-10T22:22:12.360Z,92.00
2018-05-10T22:24:39.879Z,92.10
2018-05-10T22:27:07.382Z,92.10
2018-05-10T22:29:34.905Z,92.20
2018-05-10T22:32:02.406Z,92.40
2018-05-10T22:34:29.917Z,92.30
2018-05-10T22:36:57.432Z,92.30
2018-05-10T22:39:24.931Z,92.40
2018-05-10T22:41:52.459Z,92.50
2018-05-10T22:44:20.135Z,92.20
2018-05-10T22:46:47.501Z,92.20
2018-05-10T22:49:15.016Z,92.30
2018-05-10T22:51:43.296Z,92.10
2018-05-10T22:54:11.572Z,92.40
2018-05-10T22:56:39.091Z,92.40
2018-05-10T22:59:06.607Z,92.50
2018-05-10T23:01:34.924Z,92.50
2018-05-10T23:04:02.445Z,92.50
2018-05-10T23:06:30.738Z,92.50
2018-05-10T23:08:59.011Z,92.50
2018-05-10T23:11:27.311Z,92.50
2018-05-10T23:13:54.804Z,92.50
2018-05-10T23:16:22.320Z,92.50
2018-05-10T23:18:50.602Z,92.10
2018-05-10T23:21:18.878Z,92.20
2018-05-10T23:23:47.155Z,92.60
2018-05-10T23:26:14.664Z,92.40
2018-05-10T23:28:42.166Z,92.70
2018-05-10T23:31:09.664Z,92.40
2018-05-10T23:33:37.184Z,92.40
2018-05-10T23:36:04.689Z,92.60
2018-05-10T23:38:32.955Z,92.70
2018-05-10T23:41:01.225Z,92.70
2018-05-10T23:43:28.708Z,92.70
2018-05-10T23:45:57.197Z,92.60
2018-05-10T23:48:25.469Z,92.80
2018-05-10T23:50:53.749Z,92.80
2018-05-10T23:53:22.029Z,92.90
2018-05-10T23:55:50.331Z,92.90
2018-05-10T23:58:17.833Z,92.90
